createdAt,value
2022-11-29T00:00:15.361Z,98854.27
2022-11-29T00:03:02.949Z,98854.17
2022-11-29T00:05:30.418Z,98854.89
2022-11-29T00:07:57.764Z,98853.10
2022-11-29T00:10:25.100Z,98859.58
2022-11-29T00:12:52.631Z,98858.23
2022-11-29T00:15:20.061Z,98854.16
2022-11-29T00:17:47.716Z,98853.40
2022-11-29T00:20:15.161Z,98852.52
2022-11-29T00:22:42.532Z,98851.44
2022-11-29T00:25:09.930Z,98845.20
2022-11-29T00:27:37.363Z,98842.84
2022-11-29T00:30:04.982Z,98845.26
2022-11-29T00:32:32.445Z,98844.34
2022-11-29T00:35:01.266Z,98848.69
2022-11-29T00:37:30.420Z,98849.63
2022-11-29T00:39:57.786Z,98849.59
2022-11-29T00:42:25.157Z,98850.73
2022-11-29T00:44:52.894Z,98852.90
2022-11-29T00:47:20.264Z,98851.38
2022-11-29T00:49:47.817Z,98855.30
2022-11-29T00:52:15.491Z,98849.66
2022-11-29T00:54:43.265Z,98852.91
2022-11-29T00:57:10.859Z,98849.27
2022-11-29T00:59:38.229Z,98851.23
2022-11-29T01:02:05.671Z,98851.48
2022-11-29T01:04:33.172Z,98844.60
2022-11-29T01:07:00.571Z,98848.58
2022-11-29T01:09:27.928Z,98843.86
2022-11-29T01:11:55.528Z,98844.13
2022-11-29T01:14:22.868Z,98849.52
2022-11-29T01:16:50.475Z,98844.35
2022-11-29T01:19:17.883Z,98842.95
2022-11-29T01:21:45.576Z,98841.94
2022-11-29T01:24:13.122Z,98841.52
2022-11-29T01:29:43.639Z,98834.98
2022-11-29T01:32:11.025Z,98831.93
2022-11-29T01:34:38.410Z,98831.34
2022-11-29T01:37:06.077Z,98830.73
2022-11-29T01:39:33.773Z,98825.12
2022-11-29T01:42:01.342Z,98822.44
2022-11-29T01:44:28.917Z,98819.18
2022-11-29T01:46:56.366Z,98818.27
2022-11-29T01:49:23.806Z,98813.51
2022-11-29T01:51:51.276Z,98812.44
2022-11-29T01:54:18.716Z,98813.00
2022-11-29T01:56:49.218Z,98813.85
2022-11-29T01:59:19.367Z,98815.21
2022-11-29T02:01:47.182Z,98816.71
2022-11-29T02:04:14.598Z,98817.05
2022-11-29T02:06:42.119Z,98816.55
2022-11-29T02:09:09.467Z,98816.23
2022-11-29T02:11:36.808Z,98816.73
2022-11-29T02:14:04.350Z,98818.36
2022-11-29T02:16:31.808Z,98822.20
2022-11-29T02:18:59.284Z,98833.28
2022-11-29T02:21:26.729Z,98831.09
2022-11-29T02:23:54.253Z,98825.54
2022-11-29T02:26:21.737Z,98823.30
2022-11-29T02:28:49.175Z,98824.91
2022-11-29T02:31:16.591Z,98821.62
2022-11-29T02:33:43.961Z,98824.54
2022-11-29T02:36:11.333Z,98828.95
2022-11-29T02:38:38.682Z,98827.64
2022-11-29T02:41:06.017Z,98831.17
2022-11-29T02:43:33.394Z,98831.56
2022-11-29T02:46:00.837Z,98829.48
2022-11-29T02:48:28.465Z,98830.56
2022-11-29T02:50:55.868Z,98835.27
2022-11-29T02:53:23.250Z,98835.13
2022-11-29T02:55:50.593Z,98839.98
2022-11-29T02:58:18.192Z,98840.54
2022-11-29T03:00:45.826Z,98844.61
2022-11-29T03:03:13.320Z,98842.58
2022-11-29T03:05:40.864Z,98847.06
2022-11-29T03:08:08.498Z,98846.44
2022-11-29T03:10:35.874Z,98852.86
2022-11-29T03:13:03.407Z,98857.10
2022-11-29T03:15:31.134Z,98860.14
2022-11-29T03:17:58.749Z,98865.88
2022-11-29T03:20:26.479Z,98865.39
2022-11-29T03:22:54.016Z,98858.10
2022-11-29T03:25:21.844Z,98857.38
2022-11-29T03:27:49.493Z,98861.05
2022-11-29T03:30:16.928Z,98861.91
2022-11-29T03:32:44.311Z,98863.60
2022-11-29T03:35:12.020Z,98862.58
2022-11-29T03:37:39.394Z,98865.55
2022-11-29T03:40:06.983Z,98867.12
2022-11-29T03:42:34.781Z,98869.54
2022-11-29T03:45:02.531Z,98871.80
2022-11-29T03:47:30.008Z,98872.08
2022-11-29T03:49:57.457Z,98872.61
2022-11-29T03:52:24.841Z,98871.33
2022-11-29T03:54:52.472Z,98874.66
2022-11-29T03:57:20.154Z,98875.79
2022-11-29T03:59:47.875Z,98876.77
2022-11-29T04:02:15.368Z,98878.89
2022-11-29T04:04:43.584Z,98873.32
2022-11-29T04:07:11.393Z,98872.38
2022-11-29T04:09:38.838Z,98874.48
2022-11-29T04:12:06.278Z,98880.20
2022-11-29T04:14:34.024Z,98878.45
2022-11-29T04:17:01.514Z,98882.95
2022-11-29T04:19:28.912Z,98883.67
2022-11-29T04:21:56.348Z,98885.50
2022-11-29T04:24:23.805Z,98891.30
2022-11-29T04:26:51.153Z,98894.60
2022-11-29T04:29:18.814Z,98893.52
2022-11-29T04:31:46.321Z,98898.48
2022-11-29T04:34:13.758Z,98894.38
2022-11-29T04:36:41.172Z,98896.27
2022-11-29T04:39:08.831Z,98894.54
2022-11-29T04:41:36.365Z,98898.27
2022-11-29T04:44:04.129Z,98899.48
2022-11-29T04:46:31.614Z,98905.67
2022-11-29T04:48:59.156Z,98903.50
2022-11-29T04:51:26.638Z,98911.15
2022-11-29T04:53:54.027Z,98909.48
2022-11-29T04:56:21.627Z,98908.10
2022-11-29T04:58:49.033Z,98909.52
2022-11-29T05:01:16.552Z,98914.63
2022-11-29T05:03:46.653Z,98916.67
2022-11-29T05:06:14.271Z,98916.21
2022-11-29T05:08:41.911Z,98920.09
2022-11-29T05:11:09.602Z,98922.95
2022-11-29T05:13:37.278Z,98925.89
2022-11-29T05:16:04.713Z,98923.77
2022-11-29T05:18:32.310Z,98924.34
2022-11-29T05:21:00.229Z,98923.50
2022-11-29T05:23:27.592Z,98928.20
2022-11-29T05:25:55.119Z,98928.23
2022-11-29T05:28:22.633Z,98927.71
2022-11-29T05:30:50.089Z,98933.71
2022-11-29T05:33:17.540Z,98934.36
2022-11-29T05:35:44.927Z,98933.00
2022-11-29T05:38:12.419Z,98936.98
2022-11-29T05:40:39.837Z,98941.76
2022-11-29T05:43:07.264Z,98948.01
2022-11-29T05:45:34.789Z,98952.16
2022-11-29T05:48:02.154Z,98957.77
2022-11-29T05:50:29.959Z,98962.44
2022-11-29T05:52:57.399Z,98957.59
2022-11-29T05:55:24.913Z,98957.21
2022-11-29T05:57:52.389Z,98957.30
2022-11-29T06:00:20.019Z,98957.25
2022-11-29T06:02:47.508Z,98966.31
2022-11-29T06:05:15.050Z,98970.33
2022-11-29T06:07:42.520Z,98975.98
2022-11-29T06:10:10.027Z,98982.27
2022-11-29T06:12:37.531Z,98981.19
2022-11-29T06:15:04.945Z,98976.80
2022-11-29T06:17:38.565Z,98975.88
2022-11-29T06:20:06.770Z,98983.42
2022-11-29T06:22:34.356Z,98986.61
2022-11-29T06:25:01.753Z,98986.06
2022-11-29T06:27:29.302Z,98984.04
2022-11-29T06:29:56.811Z,98984.73
2022-11-29T06:32:24.173Z,98983.52
2022-11-29T06:34:51.673Z,98984.77
2022-11-29T06:37:19.118Z,98987.63
2022-11-29T06:39:46.589Z,98985.19
2022-11-29T06:42:14.085Z,98986.40
2022-11-29T06:44:41.600Z,98990.73
2022-11-29T06:47:08.989Z,98995.04
2022-11-29T06:49:36.441Z,98999.17
2022-11-29T06:52:03.818Z,99000.19
2022-11-29T06:54:31.176Z,99000.86
2022-11-29T06:56:58.728Z,99005.36
2022-11-29T06:59:26.085Z,99005.50
2022-11-29T07:01:53.511Z,99006.16
2022-11-29T07:04:21.039Z,99006.08
2022-11-29T07:06:48.410Z,99003.61
2022-11-29T07:09:16.046Z,99008.77
2022-11-29T07:11:43.576Z,99008.55
2022-11-29T07:14:11.190Z,99009.33
2022-11-29T07:16:38.660Z,99012.43
2022-11-29T07:19:06.236Z,99012.55
2022-11-29T07:21:33.886Z,99017.50
2022-11-29T07:24:01.245Z,99021.18
2022-11-29T07:26:28.893Z,99022.69
2022-11-29T07:28:56.423Z,99026.02
2022-11-29T07:31:23.873Z,99029.95
2022-11-29T07:33:51.546Z,99033.52
2022-11-29T07:36:19.030Z,99034.80
2022-11-29T07:38:46.488Z,99031.04
2022-11-29T07:41:13.985Z,99026.81
2022-11-29T07:43:41.408Z,99028.67
2022-11-29T07:46:08.872Z,99032.04
2022-11-29T07:48:36.255Z,99036.73
2022-11-29T07:51:03.611Z,99035.70
2022-11-29T07:53:30.987Z,99033.61
2022-11-29T07:55:58.505Z,99028.86
2022-11-29T07:58:26.070Z,99033.77
2022-11-29T08:00:53.713Z,99035.83
2022-11-29T08:03:21.599Z,99037.40
2022-11-29T08:05:49.416Z,99039.75
2022-11-29T08:08:17.219Z,99040.60
2022-11-29T08:10:44.626Z,99043.05
2022-11-29T08:13:12.044Z,99040.78
2022-11-29T08:15:39.628Z,99047.55
2022-11-29T08:18:07.272Z,99047.45
2022-11-29T08:20:34.616Z,99046.48
2022-11-29T08:23:02.292Z,99048.16
2022-11-29T08:25:29.681Z,99053.08
2022-11-29T08:27:57.073Z,99052.55
2022-11-29T08:30:24.535Z,99054.20
2022-11-29T08:32:52.072Z,99051.96
2022-11-29T08:35:19.410Z,99058.08
2022-11-29T08:37:46.795Z,99059.81
2022-11-29T08:40:14.921Z,99061.93
2022-11-29T08:42:42.531Z,99060.00
2022-11-29T08:45:09.943Z,99060.98
2022-11-29T08:47:37.337Z,99055.17
2022-11-29T08:50:04.908Z,99056.56
2022-11-29T08:52:32.474Z,99057.98
2022-11-29T08:55:03.194Z,99058.18
2022-11-29T08:57:39.890Z,99061.59
2022-11-29T09:00:08.045Z,99061.73
2022-11-29T09:02:35.507Z,99062.33
2022-11-29T09:05:03.040Z,99059.36
2022-11-29T09:07:30.469Z,99061.40
2022-11-29T09:09:58.210Z,99060.93
2022-11-29T09:12:25.575Z,99059.11
2022-11-29T09:14:53.005Z,99058.83
2022-11-29T09:17:20.422Z,99058.04
2022-11-29T09:19:47.812Z,99059.63
2022-11-29T09:22:15.221Z,99058.51
2022-11-29T09:24:42.827Z,99058.23
2022-11-29T09:27:10.672Z,99055.59
2022-11-29T09:29:38.164Z,99056.30
2022-11-29T09:32:05.629Z,99057.32
2022-11-29T09:34:33.044Z,99058.22
2022-11-29T09:37:00.400Z,99057.79
2022-11-29T09:39:27.840Z,99056.51
2022-11-29T09:41:55.304Z,99052.52
2022-11-29T09:44:22.723Z,99053.58
2022-11-29T09:46:52.254Z,99054.14
2022-11-29T09:49:23.186Z,99054.52
2022-11-29T09:51:50.691Z,99050.84
2022-11-29T09:54:18.158Z,99046.98
2022-11-29T09:56:45.899Z,99050.89
2022-11-29T09:59:13.266Z,99046.73
2022-11-29T10:01:40.668Z,99046.94
2022-11-29T10:04:08.315Z,99045.80
2022-11-29T10:06:35.665Z,99043.46
2022-11-29T10:09:03.365Z,99046.52
2022-11-29T10:11:30.856Z,99049.58
2022-11-29T10:13:58.386Z,99045.90
2022-11-29T10:16:26.184Z,99043.73
2022-11-29T10:18:53.633Z,99042.90
2022-11-29T10:21:21.224Z,99045.77
2022-11-29T10:23:48.578Z,99041.06
2022-11-29T10:26:15.975Z,99043.61
2022-11-29T10:28:43.340Z,99041.08
2022-11-29T10:31:10.813Z,99038.73
2022-11-29T10:33:38.252Z,99040.60
2022-11-29T10:36:06.222Z,99033.38
2022-11-29T10:38:34.611Z,99035.57
2022-11-29T10:41:02.070Z,99034.89
2022-11-29T10:43:29.464Z,99030.19
2022-11-29T10:45:56.876Z,99033.56
2022-11-29T10:48:24.324Z,99034.05
2022-11-29T10:50:51.834Z,99036.75
2022-11-29T10:53:19.493Z,99035.90
2022-11-29T10:55:46.905Z,99028.15
2022-11-29T10:58:14.287Z,99028.14
2022-11-29T11:00:41.673Z,99029.15
2022-11-29T11:03:09.008Z,99027.95
2022-11-29T11:05:36.473Z,99027.95
2022-11-29T11:08:03.918Z,99025.73
2022-11-29T11:10:31.745Z,99026.23
2022-11-29T11:12:59.389Z,99026.20
2022-11-29T11:15:26.990Z,99026.19
2022-11-29T11:17:54.509Z,99029.04
2022-11-29T11:20:21.919Z,99032.56
2022-11-29T11:22:49.507Z,99033.23
2022-11-29T11:25:16.906Z,99030.30
2022-11-29T11:27:44.328Z,99031.27
2022-11-29T11:30:11.876Z,99031.73
2022-11-29T11:32:39.466Z,99034.23
2022-11-29T11:35:06.973Z,99035.39
2022-11-29T11:37:34.338Z,99036.55
2022-11-29T11:40:01.878Z,99037.73
2022-11-29T11:42:29.294Z,99037.90
2022-11-29T11:44:56.709Z,99036.05
2022-11-29T11:47:24.058Z,99037.73
2022-11-29T11:49:51.502Z,99033.48
2022-11-29T11:52:18.899Z,99034.51
2022-11-29T11:54:46.644Z,99030.95
2022-11-29T11:57:14.246Z,99029.77
2022-11-29T11:59:41.792Z,99030.91
2022-11-29T12:02:09.254Z,99028.36
2022-11-29T12:04:36.700Z,99028.04
2022-11-29T12:07:04.300Z,99031.06
2022-11-29T12:09:32.098Z,99029.68
2022-11-29T12:11:59.624Z,99030.36
2022-11-29T12:14:27.230Z,99034.08
2022-11-29T12:16:54.804Z,99031.71
2022-11-29T12:19:22.476Z,99028.88
2022-11-29T12:21:49.917Z,99030.40
2022-11-29T12:24:17.484Z,99034.94
2022-11-29T12:27:00.669Z,99036.60
2022-11-29T12:29:28.268Z,99035.31
2022-11-29T12:31:55.750Z,99033.05
2022-11-29T12:34:23.222Z,99035.39
2022-11-29T12:36:50.835Z,99034.36
2022-11-29T12:39:18.343Z,99033.66
2022-11-29T12:41:50.945Z,99036.02
2022-11-29T12:44:21.219Z,99037.36
2022-11-29T12:46:48.730Z,99035.81
2022-11-29T12:49:16.555Z,99035.42
2022-11-29T12:51:44.010Z,99035.70
2022-11-29T12:54:11.705Z,99040.02
2022-11-29T12:56:39.387Z,99042.40
2022-11-29T12:59:06.918Z,99041.39
2022-11-29T13:01:34.724Z,99043.89
2022-11-29T13:04:02.418Z,99049.10
2022-11-29T13:06:29.801Z,99049.66
2022-11-29T13:08:57.297Z,99049.13
2022-11-29T13:11:24.634Z,99051.63
2022-11-29T13:13:52.500Z,99055.81
2022-11-29T13:16:23.945Z,99059.06
2022-11-29T13:18:54.001Z,99059.23
2022-11-29T13:21:21.682Z,99057.38
2022-11-29T13:26:36.735Z,99057.15
2022-11-29T13:29:04.183Z,99057.70
2022-11-29T13:31:32.042Z,99058.89
2022-11-29T13:33:59.790Z,99061.16
2022-11-29T13:36:27.166Z,99066.30
2022-11-29T13:38:54.557Z,99070.36
2022-11-29T13:41:21.925Z,99068.78
2022-11-29T13:43:49.490Z,99067.20
2022-11-29T13:46:17.201Z,99071.96
2022-11-29T13:48:44.943Z,99074.80
2022-11-29T13:51:12.648Z,99075.96
2022-11-29T13:53:43.901Z,99077.37
2022-11-29T13:56:14.480Z,99078.08
2022-11-29T13:58:41.923Z,99074.94
2022-11-29T14:01:09.381Z,99074.17
2022-11-29T14:03:36.886Z,99072.82
2022-11-29T14:06:04.324Z,99074.05
2022-11-29T14:08:48.077Z,99075.85
2022-11-29T14:11:19.195Z,99077.19
2022-11-29T14:13:47.245Z,99077.03
2022-11-29T14:16:14.923Z,99077.51
2022-11-29T14:18:42.476Z,99071.19
2022-11-29T14:21:09.968Z,99072.66
2022-11-29T14:23:37.353Z,99076.85
2022-11-29T14:26:04.748Z,99071.63
2022-11-29T14:28:32.626Z,99070.20
2022-11-29T14:31:00.294Z,99072.55
2022-11-29T14:33:27.979Z,99076.38
2022-11-29T14:35:55.369Z,99081.16
2022-11-29T14:38:27.720Z,99083.57
2022-11-29T14:40:58.482Z,99081.23
2022-11-29T14:43:25.875Z,99082.92
2022-11-29T14:45:53.335Z,99083.92
2022-11-29T14:48:20.718Z,99084.57
2022-11-29T14:50:48.354Z,99083.33
2022-11-29T14:53:15.836Z,99084.45
2022-11-29T14:55:43.153Z,99087.55
2022-11-29T14:58:10.695Z,99091.36
2022-11-29T15:00:38.073Z,99093.80
2022-11-29T15:03:05.507Z,99095.58
2022-11-29T15:05:33.009Z,99100.54
2022-11-29T15:08:00.511Z,99102.80
2022-11-29T15:10:27.964Z,99113.95
2022-11-29T15:12:55.518Z,99118.54
2022-11-29T15:15:23.344Z,99119.63
2022-11-29T15:17:50.752Z,99118.35
2022-11-29T15:20:18.217Z,99120.42
2022-11-29T15:22:45.715Z,99128.91
2022-11-29T15:25:13.146Z,99126.78
2022-11-29T15:27:40.543Z,99126.37
2022-11-29T15:30:08.380Z,99127.68
2022-11-29T15:32:35.959Z,99127.80
2022-11-29T15:35:03.325Z,99131.78
2022-11-29T15:37:31.015Z,99134.05
2022-11-29T15:39:58.452Z,99137.83
2022-11-29T15:42:31.212Z,99135.39
2022-11-29T15:44:59.994Z,99138.14
2022-11-29T15:47:27.615Z,99139.79
2022-11-29T15:49:55.155Z,99144.77
2022-11-29T15:52:22.636Z,99147.09
2022-11-29T15:54:50.037Z,99151.23
2022-11-29T15:57:17.520Z,99153.50
2022-11-29T15:59:44.861Z,99156.61
2022-11-29T16:02:12.443Z,99154.17
2022-11-29T16:04:45.063Z,99153.16
2022-11-29T16:07:14.188Z,99155.48
2022-11-29T16:09:41.720Z,99155.10
2022-11-29T16:12:09.121Z,99153.70
2022-11-29T16:14:36.511Z,99157.34
2022-11-29T16:17:04.048Z,99159.27
2022-11-29T16:19:31.449Z,99163.34
2022-11-29T16:21:58.804Z,99164.25
2022-11-29T16:24:26.150Z,99169.59
2022-11-29T16:26:53.500Z,99170.04
2022-11-29T16:29:20.931Z,99169.35
2022-11-29T16:31:48.625Z,99170.11
2022-11-29T16:34:16.500Z,99168.87
2022-11-29T16:36:43.878Z,99171.61
2022-11-29T16:39:11.474Z,99173.05
2022-11-29T16:41:39.054Z,99177.77
2022-11-29T16:44:06.414Z,99180.95
2022-11-29T16:46:34.083Z,99183.28
2022-11-29T16:49:01.676Z,99185.60
2022-11-29T16:51:29.157Z,99187.05
2022-11-29T16:53:56.755Z,99194.07
2022-11-29T16:56:24.182Z,99191.19
2022-11-29T16:59:20.698Z,99189.56
2022-11-29T17:01:39.079Z,99183.45
2022-11-29T17:04:06.472Z,99186.83
2022-11-29T17:06:33.887Z,99191.52
2022-11-29T17:09:05.173Z,99192.73
2022-11-29T17:11:32.633Z,99196.46
2022-11-29T17:14:00.193Z,99199.44
2022-11-29T17:16:27.592Z,99200.23
2022-11-29T17:18:55.509Z,99200.48
2022-11-29T17:21:23.140Z,99201.20
2022-11-29T17:23:50.702Z,99207.23
2022-11-29T17:26:18.331Z,99205.75
2022-11-29T17:28:46.000Z,99205.48
2022-11-29T17:31:13.463Z,99203.42
2022-11-29T17:33:40.957Z,99203.52
2022-11-29T17:36:08.647Z,99206.13
2022-11-29T17:38:36.025Z,99208.20
2022-11-29T17:41:03.807Z,99207.73
2022-11-29T17:43:31.555Z,99205.20
2022-11-29T17:45:59.036Z,99210.55
2022-11-29T17:48:32.008Z,99208.73
2022-11-29T17:51:00.897Z,99208.25
2022-11-29T17:53:28.638Z,99207.77
2022-11-29T17:55:56.031Z,99212.29
2022-11-29T17:58:23.768Z,99209.59
2022-11-29T18:00:51.212Z,99215.77
2022-11-29T18:03:18.626Z,99214.92
2022-11-29T18:05:46.044Z,99214.45
2022-11-29T18:08:13.383Z,99209.66
2022-11-29T18:10:40.755Z,99211.59
2022-11-29T18:13:08.124Z,99215.45
2022-11-29T18:15:35.605Z,99213.13
2022-11-29T18:18:03.003Z,99214.50
2022-11-29T18:20:30.451Z,99215.70
2022-11-29T18:22:57.829Z,99216.42
2022-11-29T18:25:40.640Z,99222.52
2022-11-29T18:28:08.125Z,99221.94
2022-11-29T18:30:35.739Z,99221.10
2022-11-29T18:33:03.252Z,99220.76
2022-11-29T18:35:30.880Z,99220.91
2022-11-29T18:38:14.822Z,99220.77
2022-11-29T18:40:42.910Z,99223.02
2022-11-29T18:43:10.474Z,99224.56
2022-11-29T18:45:38.028Z,99224.40
2022-11-29T18:48:05.698Z,99223.41
2022-11-29T18:50:33.304Z,99229.14
2022-11-29T18:53:00.718Z,99223.60
2022-11-29T18:55:28.132Z,99224.52
2022-11-29T18:57:55.514Z,99226.08
2022-11-29T19:00:22.868Z,99226.05
2022-11-29T19:02:50.557Z,99225.70
2022-11-29T19:05:18.183Z,99227.87
2022-11-29T19:07:45.689Z,99227.36
2022-11-29T19:10:13.250Z,99231.06
2022-11-29T19:12:41.047Z,99231.48
2022-11-29T19:15:08.430Z,99231.20
2022-11-29T19:17:41.664Z,99233.76
2022-11-29T19:20:10.428Z,99230.41
2022-11-29T19:22:38.287Z,99231.91
2022-11-29T19:25:05.716Z,99231.05
2022-11-29T19:27:33.449Z,99234.45
2022-11-29T19:30:00.820Z,99238.02
2022-11-29T19:32:28.186Z,99238.77
2022-11-29T19:34:55.574Z,99239.63
2022-11-29T19:37:22.968Z,99244.00
2022-11-29T19:39:50.714Z,99246.48
2022-11-29T19:42:18.334Z,99245.52
2022-11-29T19:45:15.300Z,99248.08
2022-11-29T19:47:33.204Z,99249.91
2022-11-29T19:50:02.550Z,99253.41
2022-11-29T19:52:31.553Z,99251.38
2022-11-29T19:54:59.218Z,99250.36
2022-11-29T19:57:26.567Z,99249.77
2022-11-29T19:59:53.968Z,99256.04
2022-11-29T20:02:21.478Z,99255.21
2022-11-29T20:04:49.001Z,99253.86
2022-11-29T20:07:17.047Z,99253.34
2022-11-29T20:09:45.275Z,99255.04
2022-11-29T20:12:13.168Z,99258.60
2022-11-29T20:14:40.561Z,99263.01
2022-11-29T20:17:08.312Z,99260.48
2022-11-29T20:19:35.801Z,99265.88
2022-11-29T20:22:03.495Z,99265.20
2022-11-29T20:24:36.640Z,99267.88
2022-11-29T20:27:06.882Z,99270.62
2022-11-29T20:29:34.575Z,99277.38
2022-11-29T20:32:01.977Z,99276.75
2022-11-29T20:34:29.866Z,99274.71
2022-11-29T20:36:57.314Z,99277.19
2022-11-29T20:39:25.748Z,99274.33
2022-11-29T20:41:53.125Z,99272.64
2022-11-29T20:44:20.540Z,99269.52
2022-11-29T20:46:48.176Z,99272.05
2022-11-29T20:49:15.599Z,99273.42
2022-11-29T20:51:43.019Z,99270.06
2022-11-29T20:54:10.829Z,99274.40
2022-11-29T20:56:38.313Z,99272.67
2022-11-29T20:59:05.718Z,99274.21
2022-11-29T21:01:33.145Z,99275.58
2022-11-29T21:04:00.598Z,99272.39
2022-11-29T21:06:28.040Z,99273.73
2022-11-29T21:08:55.406Z,99268.47
2022-11-29T21:11:22.813Z,99273.32
2022-11-29T21:13:50.246Z,99273.15
2022-11-29T21:16:17.645Z,99278.06
2022-11-29T21:18:45.137Z,99281.28
2022-11-29T21:21:12.528Z,99284.95
2022-11-29T21:23:40.193Z,99284.38
2022-11-29T21:26:07.822Z,99283.99
2022-11-29T21:28:35.678Z,99284.34
2022-11-29T21:31:04.183Z,99281.66
2022-11-29T21:33:33.532Z,99281.70
2022-11-29T21:36:00.913Z,99281.03
2022-11-29T21:38:28.280Z,99280.65
2022-11-29T21:40:55.651Z,99282.98
2022-11-29T21:43:43.677Z,99284.28
2022-11-29T21:46:10.447Z,99285.50
2022-11-29T21:48:38.012Z,99283.84
2022-11-29T21:51:05.518Z,99283.69
2022-11-29T21:53:33.015Z,99281.66
2022-11-29T21:56:00.396Z,99287.02
2022-11-29T21:58:27.797Z,99286.17
2022-11-29T22:00:55.160Z,99288.34
2022-11-29T22:03:22.564Z,99288.63
2022-11-29T22:05:49.993Z,99290.82
2022-11-29T22:08:17.395Z,99294.90
2022-11-29T22:10:44.801Z,99292.06
2022-11-29T22:13:12.495Z,99292.23
2022-11-29T22:15:40.066Z,99292.73
2022-11-29T22:18:07.462Z,99290.53
2022-11-29T22:20:35.016Z,99286.27
2022-11-29T22:23:02.523Z,99285.61
2022-11-29T22:25:30.064Z,99282.08
2022-11-29T22:27:57.602Z,99280.23
2022-11-29T22:30:25.536Z,99282.91
2022-11-29T22:32:53.064Z,99285.41
2022-11-29T22:35:20.679Z,99285.36
2022-11-29T22:37:48.314Z,99283.83
2022-11-29T22:40:15.754Z,99283.53
2022-11-29T22:42:43.318Z,99277.02
2022-11-29T22:45:10.834Z,99273.98
2022-11-29T22:47:38.220Z,99272.43
2022-11-29T22:50:05.880Z,99269.55
2022-11-29T22:52:33.549Z,99273.70
2022-11-29T22:55:04.736Z,99277.39
2022-11-29T22:57:32.742Z,99273.21
2022-11-29T23:00:00.120Z,99275.64
2022-11-29T23:02:27.655Z,99279.55
2022-11-29T23:04:55.158Z,99284.14
2022-11-29T23:07:22.549Z,99285.67
2022-11-29T23:09:50.236Z,99287.02
2022-11-29T23:12:17.864Z,99288.55
2022-11-29T23:14:45.520Z,99291.30
2022-11-29T23:17:13.387Z,99291.14
2022-11-29T23:19:41.093Z,99288.60
2022-11-29T23:22:08.617Z,99288.37
2022-11-29T23:24:36.011Z,99288.14
2022-11-29T23:27:03.352Z,99287.94
2022-11-29T23:29:30.713Z,99286.10
2022-11-29T23:31:58.118Z,99290.64
2022-11-29T23:34:25.509Z,99289.12
2022-11-29T23:36:53.371Z,99291.73
2022-11-29T23:39:20.904Z,99294.58
2022-11-29T23:41:48.313Z,99294.59
2022-11-29T23:44:15.913Z,99293.95
2022-11-29T23:46:43.429Z,99289.45
2022-11-29T23:49:11.036Z,99293.65
2022-11-29T23:51:38.365Z,99291.64
2022-11-29T23:54:05.765Z,99294.16
2022-11-29T23:56:33.438Z,99296.36
2022-11-29T23:59:00.899Z,99295.77
